createdAt,value
2018-04-14T00:00:06.665Z,10.90
2018-04-14T00:02:35.742Z,10.90
2018-04-14T00:05:03.990Z,10.90
2018-04-14T00:07:32.318Z,10.80
2018-04-14T00:10:01.365Z,10.80
2018-04-14T00:12:29.650Z,10.80
2018-04-14T00:14:57.911Z,10.90
2018-04-14T00:17:26.209Z,10.80
2018-04-14T00:19:54.464Z,10.80
2018-04-14T00:22:22.788Z,10.90
2018-04-14T00:24:51.184Z,10.90
2018-04-14T00:27:19.441Z,10.80
2018-04-14T00:29:47.815Z,10.90
2018-04-14T00:32:16.078Z,10.90
2018-04-14T00:34:44.336Z,10.90
2018-04-14T00:37:13.380Z,10.90
2018-04-14T00:39:41.642Z,10.90
2018-04-14T00:42:10.104Z,10.90
2018-04-14T00:44:39.096Z,11.00
2018-04-14T00:47:07.361Z,11.00
2018-04-14T00:49:36.403Z,11.00
2018-04-14T00:52:04.672Z,11.00
2018-04-14T00:54:32.919Z,11.10
2018-04-14T00:57:01.964Z,11.10
2018-04-14T00:59:30.241Z,11.10
2018-04-14T01:01:58.505Z,11.10
2018-04-14T01:04:26.764Z,11.10
2018-04-14T01:06:55.796Z,11.00
2018-04-14T01:09:24.087Z,11.00
2018-04-14T01:11:52.353Z,11.00
2018-04-14T01:14:20.618Z,10.90
2018-04-14T01:16:48.920Z,10.80
2018-04-14T01:19:17.199Z,10.80
2018-04-14T01:21:45.497Z,10.70
2018-04-14T01:24:13.763Z,10.70
2018-04-14T01:26:42.022Z,10.60
2018-04-14T01:29:10.358Z,10.60
2018-04-14T01:31:38.601Z,10.60
2018-04-14T01:34:06.903Z,10.50
2018-04-14T01:36:35.160Z,10.50
2018-04-14T01:39:03.426Z,10.40
2018-04-14T01:41:31.677Z,10.40
2018-04-14T01:44:00.711Z,10.40
2018-04-14T01:46:28.982Z,10.40
2018-04-14T01:48:57.269Z,10.50
2018-04-14T01:51:25.523Z,10.50
2018-04-14T01:53:54.550Z,10.60
2018-04-14T01:56:22.804Z,10.50
2018-04-14T01:58:51.940Z,10.50
2018-04-14T02:01:20.230Z,10.50
2018-04-14T02:03:48.497Z,10.50
2018-04-14T02:06:16.754Z,10.50
2018-04-14T02:08:45.052Z,10.50
2018-04-14T02:11:13.310Z,10.50
2018-04-14T02:13:42.458Z,10.60
2018-04-14T02:16:10.740Z,10.60
2018-04-14T02:18:39.008Z,10.60
2018-04-14T02:21:07.260Z,10.60
2018-04-14T02:23:35.575Z,10.60
2018-04-14T02:26:03.887Z,10.60
2018-04-14T02:28:32.145Z,10.60
2018-04-14T02:31:00.410Z,10.60
2018-04-14T02:33:28.688Z,10.60
2018-04-14T02:35:56.938Z,10.50
2018-04-14T02:38:25.208Z,10.60
2018-04-14T02:40:54.229Z,10.50
2018-04-14T02:43:23.359Z,10.50
2018-04-14T02:45:51.721Z,10.50
2018-04-14T02:48:20.115Z,10.50
2018-04-14T02:50:48.375Z,10.40
2018-04-14T02:53:16.636Z,10.40
2018-04-14T02:55:44.902Z,10.30
2018-04-14T02:58:13.950Z,10.30
2018-04-14T03:00:42.212Z,10.30
2018-04-14T03:03:10.476Z,10.30
2018-04-14T03:05:38.787Z,10.30
2018-04-14T03:08:07.063Z,10.30
2018-04-14T03:10:35.318Z,10.30
2018-04-14T03:13:03.589Z,10.30
2018-04-14T03:15:32.612Z,10.30
2018-04-14T03:18:00.911Z,10.20
2018-04-14T03:20:29.223Z,10.30
2018-04-14T03:22:57.478Z,10.30
2018-04-14T03:25:25.736Z,10.20
2018-04-14T03:27:53.995Z,10.20
2018-04-14T03:30:22.314Z,10.20
2018-04-14T03:32:50.581Z,10.20
2018-04-14T03:35:18.879Z,10.20
2018-04-14T03:37:47.152Z,10.20
2018-04-14T03:40:15.409Z,10.20
2018-04-14T03:42:43.921Z,10.20
2018-04-14T03:45:12.181Z,10.20
2018-04-14T03:47:40.477Z,10.20
2018-04-14T03:50:08.737Z,10.10
2018-04-14T03:52:37.009Z,10.10
2018-04-14T03:55:05.257Z,10.10
2018-04-14T03:57:34.351Z,10.10
2018-04-14T04:00:02.593Z,10.00
2018-04-14T04:02:31.725Z,10.00
2018-04-14T04:05:00.007Z,9.90
2018-04-14T04:07:28.243Z,9.80
2018-04-14T04:09:56.521Z,9.80
2018-04-14T04:12:24.841Z,9.80
2018-04-14T04:14:53.081Z,9.80
2018-04-14T04:17:21.334Z,9.80
2018-04-14T04:20:01.686Z,9.70
2018-04-14T04:22:42.690Z,9.80
2018-04-14T04:28:15.167Z,9.70
2018-04-14T04:30:43.980Z,9.70
2018-04-14T04:33:12.002Z,9.70
2018-04-14T04:35:40.009Z,9.60
2018-04-14T04:38:08.044Z,9.70
2018-04-14T04:40:36.049Z,9.70
2018-04-14T04:43:04.073Z,9.70
2018-04-14T04:45:32.855Z,9.60
2018-04-14T04:48:01.645Z,9.60
2018-04-14T04:50:29.652Z,9.60
2018-04-14T04:52:57.713Z,9.70
2018-04-14T04:55:26.506Z,9.60
2018-04-14T04:57:55.301Z,9.60
2018-04-14T05:00:23.332Z,9.60
2018-04-14T05:02:51.415Z,9.60
2018-04-14T05:05:19.544Z,9.60
2018-04-14T05:07:47.659Z,9.60
2018-04-14T05:10:15.731Z,9.60
2018-04-14T05:12:43.765Z,9.60
2018-04-14T05:15:11.833Z,9.60
2018-04-14T05:17:39.907Z,9.70
2018-04-14T05:20:08.018Z,9.70
2018-04-14T05:22:36.606Z,9.70
2018-04-14T05:25:04.635Z,9.80
2018-04-14T05:27:32.706Z,9.70
2018-04-14T05:30:00.780Z,9.80
2018-04-14T05:32:29.586Z,9.90
2018-04-14T05:34:57.667Z,9.90
2018-04-14T05:37:25.718Z,9.80
2018-04-14T05:39:53.687Z,9.90
2018-04-14T05:42:22.471Z,10.00
2018-04-14T05:44:51.289Z,10.00
2018-04-14T05:47:20.079Z,10.00
2018-04-14T05:49:48.872Z,10.10
2018-04-14T05:52:16.894Z,10.10
2018-04-14T05:54:45.001Z,10.30
2018-04-14T05:57:13.815Z,10.50
2018-04-14T05:59:43.055Z,10.70
2018-04-14T06:02:11.094Z,10.70
2018-04-14T06:04:39.885Z,11.20
2018-04-14T06:07:08.661Z,11.30
2018-04-14T06:09:37.456Z,11.40
2018-04-14T06:12:06.268Z,11.40
2018-04-14T06:14:34.305Z,11.40
2018-04-14T06:17:02.334Z,11.40
2018-04-14T06:19:30.356Z,11.60
2018-04-14T06:21:58.395Z,11.70
2018-04-14T06:24:26.424Z,11.70
2018-04-14T06:26:55.225Z,11.80
2018-04-14T06:29:24.034Z,11.80
2018-04-14T06:31:52.820Z,11.90
2018-04-14T06:34:21.606Z,11.90
2018-04-14T06:36:50.423Z,11.90
2018-04-14T06:39:18.492Z,11.90
2018-04-14T06:41:46.523Z,12.10
2018-04-14T06:44:14.547Z,12.20
2018-04-14T06:46:42.613Z,12.30
2018-04-14T06:49:11.194Z,12.30
2018-04-14T06:51:40.042Z,12.30
2018-04-14T06:54:08.069Z,12.30
2018-04-14T06:56:36.844Z,12.50
2018-04-14T06:59:04.877Z,12.50
2018-04-14T07:01:32.918Z,12.60
2018-04-14T07:04:01.718Z,12.50
2018-04-14T07:06:29.857Z,12.50
2018-04-14T07:08:58.668Z,12.30
2018-04-14T07:11:27.440Z,12.10
2018-04-14T07:13:55.472Z,12.10
2018-04-14T07:16:23.559Z,12.10
2018-04-14T07:18:51.561Z,12.20
2018-04-14T07:21:19.700Z,12.20
2018-04-14T07:23:47.784Z,12.00
2018-04-14T07:26:15.793Z,11.90
2018-04-14T07:28:43.878Z,11.80
2018-04-14T07:31:11.895Z,11.80
2018-04-14T07:33:39.942Z,11.80
2018-04-14T07:36:08.718Z,11.60
2018-04-14T07:38:38.365Z,11.40
2018-04-14T07:41:06.377Z,11.40
2018-04-14T07:43:34.383Z,11.50
2018-04-14T07:46:03.185Z,11.60
2018-04-14T07:48:31.978Z,11.70
2018-04-14T07:51:00.003Z,11.70
2018-04-14T07:53:28.075Z,11.80
2018-04-14T07:55:56.103Z,11.80
2018-04-14T07:58:24.888Z,12.00
2018-04-14T08:00:53.722Z,12.40
2018-04-14T08:03:21.741Z,12.40
2018-04-14T08:05:50.579Z,13.20
2018-04-14T08:08:19.370Z,13.90
2018-04-14T08:10:48.355Z,14.60
2018-04-14T08:13:17.191Z,15.30
2018-04-14T08:15:45.265Z,15.20
2018-04-14T08:18:13.489Z,15.90
2018-04-14T08:20:41.590Z,16.50
2018-04-14T08:23:10.362Z,16.80
2018-04-14T08:25:39.209Z,16.90
2018-04-14T08:28:07.240Z,16.90
2018-04-14T08:30:35.282Z,17.10
2018-04-14T08:33:03.388Z,17.20
2018-04-14T08:35:32.285Z,18.20
2018-04-14T08:38:01.060Z,18.40
2018-04-14T08:40:29.101Z,18.40
2018-04-14T08:42:57.107Z,19.20
2018-04-14T08:45:25.239Z,19.80
2018-04-14T08:47:53.227Z,20.80
2018-04-14T08:50:21.245Z,21.40
2018-04-14T08:52:50.016Z,23.00
2018-04-14T08:55:18.118Z,23.00
2018-04-14T08:57:46.928Z,24.00
2018-04-14T09:00:14.992Z,24.00
2018-04-14T09:02:43.782Z,25.00
2018-04-14T09:05:12.877Z,24.90
2018-04-14T09:07:40.922Z,24.90
2018-04-14T09:10:08.940Z,24.50
2018-04-14T09:12:36.945Z,25.00
2018-04-14T09:15:20.409Z,25.20
2018-04-14T09:17:49.425Z,25.60
2018-04-14T09:20:18.055Z,25.60
2018-04-14T09:22:46.583Z,26.20
2018-04-14T09:25:15.240Z,25.80
2018-04-14T09:27:43.839Z,25.70
2018-04-14T09:30:12.416Z,25.70
2018-04-14T09:32:40.926Z,25.80
2018-04-14T09:35:09.489Z,25.90
2018-04-14T09:37:37.980Z,26.70
2018-04-14T09:40:06.476Z,26.80
2018-04-14T09:42:35.111Z,27.10
2018-04-14T09:45:04.505Z,28.50
2018-04-14T09:47:34.130Z,28.40
2018-04-14T09:50:03.234Z,29.20
2018-04-14T09:52:31.487Z,29.10
2018-04-14T09:54:59.744Z,29.20
2018-04-14T09:57:28.793Z,29.70
2018-04-14T09:59:57.052Z,29.60
2018-04-14T10:02:26.125Z,29.80
2018-04-14T10:04:55.153Z,29.80
2018-04-14T10:07:23.485Z,29.80
2018-04-14T10:09:51.724Z,29.50
2018-04-14T10:12:20.046Z,29.60
2018-04-14T10:14:48.304Z,29.50
2018-04-14T10:17:16.576Z,29.30
2018-04-14T10:19:44.852Z,29.20
2018-04-14T10:22:13.313Z,29.50
2018-04-14T10:24:42.008Z,29.50
2018-04-14T10:27:10.592Z,29.10
2018-04-14T10:29:38.926Z,29.30
2018-04-14T10:32:07.200Z,29.40
2018-04-14T10:34:35.471Z,29.70
2018-04-14T10:37:03.710Z,30.30
2018-04-14T10:39:31.964Z,30.50
2018-04-14T10:42:00.222Z,30.30
2018-04-14T10:44:28.475Z,29.80
2018-04-14T10:46:56.707Z,30.20
2018-04-14T10:49:25.846Z,30.30
2018-04-14T10:51:54.110Z,30.30
2018-04-14T10:54:22.348Z,30.50
2018-04-14T10:56:50.605Z,30.60
2018-04-14T10:59:18.836Z,30.60
2018-04-14T11:01:47.148Z,30.60
2018-04-14T11:04:15.705Z,29.60
2018-04-14T11:06:44.724Z,29.60
2018-04-14T11:09:12.990Z,29.50
2018-04-14T11:11:42.049Z,29.40
2018-04-14T11:14:10.284Z,29.40
2018-04-14T11:16:38.545Z,29.60
2018-04-14T11:19:06.806Z,29.70
2018-04-14T11:21:35.069Z,29.90
2018-04-14T11:24:03.333Z,29.50
2018-04-14T11:26:31.580Z,29.30
2018-04-14T11:28:59.872Z,29.20
2018-04-14T11:31:28.238Z,29.30
2018-04-14T11:33:56.428Z,29.30
2018-04-14T11:36:24.688Z,29.10
2018-04-14T11:38:53.693Z,29.40
2018-04-14T11:41:22.036Z,29.30
2018-04-14T11:43:50.285Z,29.30
2018-04-14T11:46:18.538Z,29.50
2018-04-14T11:48:46.774Z,30.00
2018-04-14T11:51:16.665Z,30.00
2018-04-14T11:53:44.910Z,30.00
2018-04-14T11:56:13.943Z,30.20
2018-04-14T11:58:42.176Z,30.10
2018-04-14T12:01:11.217Z,29.90
2018-04-14T12:03:39.561Z,29.90
2018-04-14T12:06:07.785Z,29.80
2018-04-14T12:08:36.026Z,29.60
2018-04-14T12:11:04.280Z,29.50
2018-04-14T12:13:32.609Z,29.20
2018-04-14T12:16:00.929Z,28.60
2018-04-14T12:18:29.150Z,28.00
2018-04-14T12:20:57.408Z,27.40
2018-04-14T12:23:26.406Z,26.70
2018-04-14T12:25:55.420Z,26.70
2018-04-14T12:28:23.762Z,26.30
2018-04-14T12:30:51.984Z,25.90
2018-04-14T12:33:20.285Z,25.80
2018-04-14T12:35:48.603Z,25.70
2018-04-14T12:38:16.833Z,25.50
2018-04-14T12:40:45.125Z,25.40
2018-04-14T12:43:13.422Z,25.30
2018-04-14T12:45:41.689Z,25.20
2018-04-14T12:48:09.943Z,25.10
2018-04-14T12:50:38.964Z,25.20
2018-04-14T12:53:07.200Z,25.30
2018-04-14T12:55:36.224Z,25.30
2018-04-14T12:58:04.466Z,25.30
2018-04-14T13:00:32.800Z,25.40
2018-04-14T13:03:01.120Z,25.50
2018-04-14T13:05:29.354Z,25.50
2018-04-14T13:07:57.607Z,25.60
2018-04-14T13:10:26.745Z,25.20
2018-04-14T13:12:56.688Z,25.20
2018-04-14T13:15:25.761Z,25.20
2018-04-14T13:17:54.062Z,25.20
2018-04-14T13:20:25.487Z,25.30
2018-04-14T13:22:54.472Z,25.70
2018-04-14T13:25:22.955Z,25.90
2018-04-14T13:27:51.207Z,26.00
2018-04-14T13:30:19.467Z,26.60
2018-04-14T13:32:47.812Z,26.70
2018-04-14T13:35:16.199Z,27.00
2018-04-14T13:37:44.445Z,26.50
2018-04-14T13:40:13.871Z,25.30
2018-04-14T13:42:42.122Z,25.30
2018-04-14T13:45:11.168Z,24.50
2018-04-14T13:47:39.441Z,24.50
2018-04-14T13:50:07.678Z,24.10
2018-04-14T13:52:36.721Z,23.40
2018-04-14T13:55:04.964Z,23.40
2018-04-14T13:57:33.983Z,23.10
2018-04-14T14:00:02.238Z,23.10
2018-04-14T14:02:31.262Z,22.50
2018-04-14T14:04:59.508Z,22.50
2018-04-14T14:07:28.718Z,22.10
2018-04-14T14:09:56.976Z,22.10
2018-04-14T14:12:25.222Z,21.90
2018-04-14T14:14:53.464Z,21.90
2018-04-14T14:17:22.594Z,22.00
2018-04-14T14:19:50.850Z,21.90
2018-04-14T14:22:19.175Z,22.00
2018-04-14T14:24:47.417Z,22.00
2018-04-14T14:27:15.715Z,22.10
2018-04-14T14:29:43.969Z,22.20
2018-04-14T14:32:13.101Z,22.20
2018-04-14T14:34:41.365Z,21.80
2018-04-14T14:37:09.625Z,21.70
2018-04-14T14:39:37.920Z,21.70
2018-04-14T14:42:06.164Z,21.70
2018-04-14T14:44:35.185Z,21.60
2018-04-14T14:47:03.424Z,21.60
2018-04-14T14:49:31.685Z,21.60
2018-04-14T14:51:59.935Z,21.70
2018-04-14T14:54:28.209Z,21.70
2018-04-14T14:56:56.452Z,21.70
2018-04-14T14:59:24.728Z,21.60
2018-04-14T15:01:52.977Z,21.50
2018-04-14T15:04:21.240Z,21.50
2018-04-14T15:06:49.486Z,21.50
2018-04-14T15:09:18.505Z,21.50
2018-04-14T15:11:46.771Z,21.50
2018-04-14T15:14:15.915Z,21.60
2018-04-14T15:16:44.166Z,21.50
2018-04-14T15:19:12.426Z,21.60
2018-04-14T15:21:41.438Z,21.70
2018-04-14T15:24:09.705Z,21.60
2018-04-14T15:26:38.741Z,21.70
2018-04-14T15:29:07.008Z,21.70
2018-04-14T15:31:35.287Z,21.70
2018-04-14T15:34:03.552Z,21.60
2018-04-14T15:36:31.840Z,21.60
2018-04-14T15:39:00.137Z,21.60
2018-04-14T15:41:28.408Z,21.50
2018-04-14T15:43:56.699Z,21.40
2018-04-14T15:46:24.978Z,21.20
2018-04-14T15:48:53.240Z,21.10
2018-04-14T15:51:21.503Z,21.00
2018-04-14T15:53:50.530Z,21.00
2018-04-14T15:56:18.796Z,21.00
2018-04-14T15:58:47.046Z,21.00
2018-04-14T16:01:16.075Z,20.80
2018-04-14T16:03:44.837Z,20.80
2018-04-14T16:06:12.634Z,20.80
2018-04-14T16:08:40.942Z,20.80
2018-04-14T16:11:09.200Z,20.80
2018-04-14T16:13:37.496Z,20.80
2018-04-14T16:16:05.759Z,20.80
2018-04-14T16:18:34.002Z,20.80
2018-04-14T16:21:03.026Z,20.90
2018-04-14T16:23:31.716Z,20.90
2018-04-14T16:26:00.712Z,21.00
2018-04-14T16:28:29.025Z,21.00
2018-04-14T16:30:57.271Z,21.10
2018-04-14T16:33:25.522Z,21.10
2018-04-14T16:35:53.893Z,21.10
2018-04-14T16:38:22.177Z,21.10
2018-04-14T16:40:50.452Z,21.00
2018-04-14T16:43:18.683Z,21.10
2018-04-14T16:45:46.963Z,21.00
2018-04-14T16:48:15.216Z,21.00
2018-04-14T16:50:43.562Z,20.90
2018-04-14T16:53:12.009Z,20.80
2018-04-14T16:55:40.313Z,20.70
2018-04-14T16:58:08.589Z,20.70
2018-04-14T17:00:36.877Z,20.60
2018-04-14T17:03:05.127Z,20.60
2018-04-14T17:05:33.386Z,20.50
2018-04-14T17:08:02.437Z,20.30
2018-04-14T17:10:30.686Z,20.20
2018-04-14T17:12:58.952Z,20.10
2018-04-14T17:15:27.960Z,20.00
2018-04-14T17:17:56.246Z,19.90
2018-04-14T17:20:25.243Z,19.80
2018-04-14T17:22:53.516Z,19.80
2018-04-14T17:25:22.596Z,19.80
2018-04-14T17:27:50.829Z,19.70
2018-04-14T17:30:19.110Z,19.80
2018-04-14T17:32:47.374Z,19.60
2018-04-14T17:35:15.669Z,19.60
2018-04-14T17:37:43.940Z,19.60
2018-04-14T17:40:12.176Z,19.60
2018-04-14T17:42:40.459Z,19.60
2018-04-14T17:45:08.708Z,19.50
2018-04-14T17:47:37.068Z,19.50
2018-04-14T17:50:05.314Z,19.50
2018-04-14T17:52:34.358Z,19.40
2018-04-14T17:55:02.637Z,19.40
2018-04-14T17:57:30.900Z,19.40
2018-04-14T17:59:59.156Z,19.40
2018-04-14T18:02:28.186Z,19.30
2018-04-14T18:04:56.440Z,19.20
2018-04-14T18:07:24.780Z,19.30
2018-04-14T18:09:53.052Z,19.30
2018-04-14T18:12:21.337Z,19.20
2018-04-14T18:14:49.588Z,19.30
2018-04-14T18:17:17.851Z,19.20
2018-04-14T18:19:46.159Z,19.10
2018-04-14T18:22:14.436Z,19.10
2018-04-14T18:24:42.689Z,19.10
2018-04-14T18:27:10.972Z,19.10
2018-04-14T18:29:39.228Z,19.10
2018-04-14T18:32:08.273Z,19.10
2018-04-14T18:34:36.521Z,19.10
2018-04-14T18:37:04.825Z,19.10
2018-04-14T18:39:33.082Z,19.10
2018-04-14T18:42:02.130Z,19.10
2018-04-14T18:44:30.381Z,19.10
2018-04-14T18:46:58.639Z,19.10
2018-04-14T18:49:26.880Z,19.10
2018-04-14T18:51:55.937Z,18.90
2018-04-14T18:54:24.200Z,18.90
2018-04-14T18:56:52.518Z,18.90
2018-04-14T18:59:20.750Z,18.90
2018-04-14T19:01:49.012Z,18.80
2018-04-14T19:04:18.799Z,18.70
2018-04-14T19:06:47.044Z,18.70
2018-04-14T19:09:15.327Z,18.60
2018-04-14T19:11:43.601Z,18.60
2018-04-14T19:14:11.876Z,18.50
2018-04-14T19:16:40.155Z,18.50
2018-04-14T19:19:08.398Z,18.40
2018-04-14T19:21:37.440Z,18.20
2018-04-14T19:24:05.729Z,18.20
2018-04-14T19:26:33.987Z,18.10
2018-04-14T19:29:02.239Z,18.00
2018-04-14T19:31:31.282Z,17.90
2018-04-14T19:33:59.560Z,17.90
2018-04-14T19:36:27.813Z,17.80
2018-04-14T19:38:56.938Z,17.60
2018-04-14T19:41:25.176Z,17.60
2018-04-14T19:43:54.327Z,17.50
2018-04-14T19:46:22.605Z,17.50
2018-04-14T19:48:50.856Z,17.40
2018-04-14T19:51:19.092Z,17.30
2018-04-14T19:53:48.157Z,17.10
2018-04-14T19:56:16.432Z,17.10
2018-04-14T19:58:44.707Z,17.10
2018-04-14T20:01:12.961Z,17.10
2018-04-14T20:03:42.408Z,16.90
2018-04-14T20:06:10.650Z,16.80
2018-04-14T20:08:39.676Z,16.70
2018-04-14T20:11:07.930Z,16.70
2018-04-14T20:13:36.230Z,16.60
2018-04-14T20:16:04.485Z,16.60
2018-04-14T20:18:32.758Z,16.60
2018-04-14T20:21:02.326Z,16.50
2018-04-14T20:23:30.763Z,16.40
2018-04-14T20:25:59.407Z,16.40
2018-04-14T20:28:27.704Z,16.40
2018-04-14T20:30:56.716Z,16.30
2018-04-14T20:33:25.738Z,16.30
2018-04-14T20:35:53.984Z,16.20
2018-04-14T20:38:23.017Z,16.20
2018-04-14T20:40:51.325Z,16.10
2018-04-14T20:43:19.581Z,16.20
2018-04-14T20:45:47.830Z,16.20
2018-04-14T20:48:16.853Z,16.20
2018-04-14T20:50:45.153Z,16.10
2018-04-14T20:53:13.418Z,16.20
2018-04-14T20:55:41.649Z,16.10
2018-04-14T20:58:09.929Z,16.10
2018-04-14T21:00:38.146Z,16.10
2018-04-14T21:03:06.432Z,16.00
2018-04-14T21:05:34.682Z,15.90
2018-04-14T21:08:03.722Z,15.90
2018-04-14T21:10:31.969Z,15.90
2018-04-14T21:13:00.989Z,15.80
2018-04-14T21:15:29.277Z,15.70
2018-04-14T21:17:57.537Z,15.80
2018-04-14T21:20:26.580Z,15.60
2018-04-14T21:22:55.180Z,15.60
2018-04-14T21:25:23.523Z,15.60
2018-04-14T21:27:51.794Z,15.60
2018-04-14T21:30:20.034Z,15.50
2018-04-14T21:32:48.333Z,15.40
2018-04-14T21:35:17.707Z,15.30
2018-04-14T21:37:46.077Z,15.30
2018-04-14T21:40:14.436Z,15.30
2018-04-14T21:42:42.731Z,15.30
2018-04-14T21:45:10.999Z,15.30
2018-04-14T21:47:39.253Z,15.30
2018-04-14T21:50:07.548Z,15.20
2018-04-14T21:52:35.810Z,15.20
2018-04-14T21:55:04.130Z,15.20
2018-04-14T21:57:32.401Z,15.10
2018-04-14T22:00:00.664Z,15.10
2018-04-14T22:02:28.931Z,15.10
2018-04-14T22:04:57.194Z,15.00
2018-04-14T22:07:25.449Z,15.00
2018-04-14T22:09:53.687Z,15.00
2018-04-14T22:12:21.973Z,15.00
2018-04-14T22:14:50.216Z,15.00
2018-04-14T22:17:19.236Z,14.90
2018-04-14T22:19:47.566Z,14.80
2018-04-14T22:22:17.879Z,14.80
2018-04-14T22:24:46.923Z,14.80
2018-04-14T22:27:15.953Z,14.90
2018-04-14T22:29:44.233Z,14.80
2018-04-14T22:32:12.491Z,14.80
2018-04-14T22:34:40.773Z,14.80
2018-04-14T22:37:09.022Z,14.70
2018-04-14T22:39:38.077Z,14.60
2018-04-14T22:42:06.325Z,14.60
2018-04-14T22:44:34.633Z,14.60
2018-04-14T22:47:02.912Z,14.60
2018-04-14T22:49:31.194Z,14.50
2018-04-14T22:51:59.433Z,14.60
2018-04-14T22:54:28.466Z,14.60
2018-04-14T22:56:56.713Z,14.60
2018-04-14T22:59:25.724Z,14.50
2018-04-14T23:01:54.036Z,14.50
2018-04-14T23:04:22.343Z,14.50
2018-04-14T23:06:50.565Z,14.60
2018-04-14T23:09:18.896Z,14.50
2018-04-14T23:11:47.138Z,14.50
2018-04-14T23:14:15.422Z,14.50
2018-04-14T23:16:43.672Z,14.40
2018-04-14T23:19:12.742Z,14.40
2018-04-14T23:21:40.960Z,14.40
2018-04-14T23:24:09.226Z,14.40
2018-04-14T23:26:38.238Z,14.30
2018-04-14T23:29:06.497Z,14.30
2018-04-14T23:31:35.501Z,14.30
2018-04-14T23:34:03.747Z,14.20
2018-04-14T23:36:32.022Z,14.30
2018-04-14T23:39:00.254Z,14.30
2018-04-14T23:41:28.542Z,14.20
2018-04-14T23:43:56.793Z,14.30
2018-04-14T23:46:25.818Z,14.30
2018-04-14T23:48:54.060Z,14.20
2018-04-14T23:51:23.097Z,14.30
2018-04-14T23:53:51.381Z,14.20
2018-04-14T23:56:19.752Z,14.30
2018-04-14T23:58:47.993Z,14.20
